sensor_id;sensor_type;location;lat;lon;timestamp;pressure;altitude;pressure_sealevel;temperature;humidity
78317;BME280;67572;50.930;18.276;2023-05-24T00:00:23;98762.03;;;13.06;87.51
78317;BME280;67572;50.930;18.276;2023-05-24T00:03:27;98769.19;;;13.06;87.51
78317;BME280;67572;50.930;18.276;2023-05-24T00:06:32;98767.25;;;13.08;87.34
78317;BME280;67572;50.930;18.276;2023-05-24T00:09:37;98772.19;;;13.13;87.55
78317;BME280;67572;50.930;18.276;2023-05-24T00:12:41;98769.66;;;13.11;87.83
78317;BME280;67572;50.930;18.276;2023-05-24T00:15:44;98767.16;;;13.19;87.32
78317;BME280;67572;50.930;18.276;2023-05-24T00:18:48;98770.19;;;13.26;87.87
78317;BME280;67572;50.930;18.276;2023-05-24T00:21:53;98771.16;;;13.46;87.88
78317;BME280;67572;50.930;18.276;2023-05-24T00:24:58;98762.59;;;13.52;87.80
78317;BME280;67572;50.930;18.276;2023-05-24T00:28:01;98767.03;;;13.63;87.65
78317;BME280;67572;50.930;18.276;2023-05-24T00:31:05;98770.03;;;13.69;87.62
78317;BME280;67572;50.930;18.276;2023-05-24T00:34:09;98775.69;;;13.76;87.30
78317;BME280;67572;50.930;18.276;2023-05-24T00:37:13;98771.19;;;13.76;87.95
78317;BME280;67572;50.930;18.276;2023-05-24T00:40:18;98778.53;;;13.84;87.75
78317;BME280;67572;50.930;18.276;2023-05-24T00:43:23;98780.38;;;13.93;88.02
78317;BME280;67572;50.930;18.276;2023-05-24T00:46:28;98778.84;;;13.91;88.18
78317;BME280;67572;50.930;18.276;2023-05-24T00:49:33;98773.06;;;13.95;87.84
78317;BME280;67572;50.930;18.276;2023-05-24T00:52:37;98769.00;;;13.91;87.68
78317;BME280;67572;50.930;18.276;2023-05-24T00:55:42;98766.19;;;13.93;88.01
78317;BME280;67572;50.930;18.276;2023-05-24T00:58:46;98772.53;;;14.01;87.98
78317;BME280;67572;50.930;18.276;2023-05-24T01:01:51;98770.72;;;14.11;87.81
78317;BME280;67572;50.930;18.276;2023-05-24T01:04:56;98775.38;;;14.09;88.23
78317;BME280;67572;50.930;18.276;2023-05-24T01:08:07;98774.25;;;14.12;88.86
78317;BME280;67572;50.930;18.276;2023-05-24T01:11:20;98776.97;;;14.22;88.90
78317;BME280;67572;50.930;18.276;2023-05-24T01:14:34;98774.28;;;14.22;89.11
78317;BME280;67572;50.930;18.276;2023-05-24T01:17:45;98781.03;;;14.26;89.04
78317;BME280;67572;50.930;18.276;2023-05-24T01:20:59;98779.34;;;14.25;89.13
78317;BME280;67572;50.930;18.276;2023-05-24T01:24:15;98775.28;;;14.30;89.44
78317;BME280;67572;50.930;18.276;2023-05-24T01:27:22;98781.19;;;14.34;89.21
78317;BME280;67572;50.930;18.276;2023-05-24T01:30:27;98783.16;;;14.32;89.08
78317;BME280;67572;50.930;18.276;2023-05-24T01:33:31;98790.34;;;14.31;89.19
78317;BME280;67572;50.930;18.276;2023-05-24T01:36:35;98786.69;;;14.32;89.39
78317;BME280;67572;50.930;18.276;2023-05-24T01:39:39;98792.03;;;14.32;89.18
78317;BME280;67572;50.930;18.276;2023-05-24T01:42:46;98780.34;;;14.33;89.07
78317;BME280;67572;50.930;18.276;2023-05-24T01:45:58;98796.69;;;14.40;89.26
78317;BME280;67572;50.930;18.276;2023-05-24T01:49:12;98801.19;;;14.39;89.22
78317;BME280;67572;50.930;18.276;2023-05-24T01:52:21;98797.97;;;14.36;89.21
78317;BME280;67572;50.930;18.276;2023-05-24T01:55:26;98801.75;;;14.43;89.24
78317;BME280;67572;50.930;18.276;2023-05-24T01:58:33;98805.41;;;14.42;89.42
78317;BME280;67572;50.930;18.276;2023-05-24T02:01:39;98812.34;;;14.44;88.82
78317;BME280;67572;50.930;18.276;2023-05-24T02:04:43;98808.38;;;14.39;88.95
78317;BME280;67572;50.930;18.276;2023-05-24T02:07:46;98815.56;;;14.38;88.42
78317;BME280;67572;50.930;18.276;2023-05-24T02:10:50;98812.59;;;14.32;88.72
78317;BME280;67572;50.930;18.276;2023-05-24T02:13:55;98808.38;;;14.29;88.76
78317;BME280;67572;50.930;18.276;2023-05-24T02:16:59;98808.66;;;14.36;88.72
78317;BME280;67572;50.930;18.276;2023-05-24T02:20:05;98807.94;;;14.34;88.65
78317;BME280;67572;50.930;18.276;2023-05-24T02:23:08;98817.09;;;14.31;88.82
78317;BME280;67572;50.930;18.276;2023-05-24T02:26:12;98824.41;;;14.29;89.02
78317;BME280;67572;50.930;18.276;2023-05-24T02:29:17;98826.53;;;14.35;88.59
78317;BME280;67572;50.930;18.276;2023-05-24T02:32:20;98825.84;;;14.43;88.56
78317;BME280;67572;50.930;18.276;2023-05-24T02:35:24;98832.16;;;14.42;88.44
78317;BME280;67572;50.930;18.276;2023-05-24T02:38:28;98830.06;;;14.36;88.14
78317;BME280;67572;50.930;18.276;2023-05-24T02:41:32;98821.16;;;14.35;88.16
78317;BME280;67572;50.930;18.276;2023-05-24T02:44:37;98829.34;;;14.34;88.20
78317;BME280;67572;50.930;18.276;2023-05-24T02:47:41;98825.66;;;14.25;88.49
78317;BME280;67572;50.930;18.276;2023-05-24T02:50:44;98835.50;;;14.25;88.68
78317;BME280;67572;50.930;18.276;2023-05-24T02:53:48;98838.72;;;14.19;88.90
78317;BME280;67572;50.930;18.276;2023-05-24T02:56:52;98839.84;;;14.16;88.93
78317;BME280;67572;50.930;18.276;2023-05-24T02:59:59;98843.25;;;13.97;89.53
78317;BME280;67572;50.930;18.276;2023-05-24T03:03:06;98857.22;;;13.70;90.26
78317;BME280;67572;50.930;18.276;2023-05-24T03:06:10;98856.09;;;13.52;90.40
78317;BME280;67572;50.930;18.276;2023-05-24T03:09:15;98864.13;;;13.31;90.14
78317;BME280;67572;50.930;18.276;2023-05-24T03:12:20;98870.25;;;13.11;90.46
78317;BME280;67572;50.930;18.276;2023-05-24T03:15:26;98875.38;;;13.02;90.12
78317;BME280;67572;50.930;18.276;2023-05-24T03:18:29;98870.78;;;12.93;90.16
78317;BME280;67572;50.930;18.276;2023-05-24T03:21:33;98879.31;;;12.87;90.79
78317;BME280;67572;50.930;18.276;2023-05-24T03:24:37;98887.09;;;12.79;91.20
78317;BME280;67572;50.930;18.276;2023-05-24T03:27:41;98889.00;;;12.77;91.32
78317;BME280;67572;50.930;18.276;2023-05-24T03:30:48;98895.22;;;12.77;91.43
78317;BME280;67572;50.930;18.276;2023-05-24T03:33:52;98892.56;;;12.66;91.41
78317;BME280;67572;50.930;18.276;2023-05-24T03:36:56;98887.09;;;12.68;91.75
78317;BME280;67572;50.930;18.276;2023-05-24T03:40:00;98893.31;;;12.57;92.22
78317;BME280;67572;50.930;18.276;2023-05-24T03:43:17;98894.50;;;12.53;92.23
78317;BME280;67572;50.930;18.276;2023-05-24T03:46:32;98900.69;;;12.54;92.68
78317;BME280;67572;50.930;18.276;2023-05-24T03:49:36;98897.56;;;12.48;92.15
78317;BME280;67572;50.930;18.276;2023-05-24T03:52:41;98897.69;;;12.47;92.02
78317;BME280;67572;50.930;18.276;2023-05-24T03:55:44;98905.69;;;12.36;91.76
78317;BME280;67572;50.930;18.276;2023-05-24T03:58:48;98906.53;;;12.14;91.95
78317;BME280;67572;50.930;18.276;2023-05-24T04:01:55;98909.81;;;12.17;92.34
78317;BME280;67572;50.930;18.276;2023-05-24T04:04:59;98902.91;;;12.15;91.96
78317;BME280;67572;50.930;18.276;2023-05-24T04:08:03;98905.81;;;12.12;92.39
78317;BME280;67572;50.930;18.276;2023-05-24T04:11:06;98907.25;;;12.05;91.94
78317;BME280;67572;50.930;18.276;2023-05-24T04:14:11;98911.38;;;11.98;91.14
78317;BME280;67572;50.930;18.276;2023-05-24T04:17:16;98922.38;;;11.82;90.66
78317;BME280;67572;50.930;18.276;2023-05-24T04:20:24;98924.50;;;11.77;90.41
78317;BME280;67572;50.930;18.276;2023-05-24T04:23:32;98939.03;;;11.73;90.47
78317;BME280;67572;50.930;18.276;2023-05-24T04:26:36;98953.91;;;11.64;90.70
78317;BME280;67572;50.930;18.276;2023-05-24T04:29:40;98956.75;;;11.50;90.74
78317;BME280;67572;50.930;18.276;2023-05-24T04:32:46;98954.88;;;11.39;90.95
78317;BME280;67572;50.930;18.276;2023-05-24T04:35:50;98954.88;;;11.39;90.71
78317;BME280;67572;50.930;18.276;2023-05-24T04:38:54;98965.38;;;11.29;91.14
78317;BME280;67572;50.930;18.276;2023-05-24T04:42:07;98963.84;;;11.14;91.26
78317;BME280;67572;50.930;18.276;2023-05-24T04:45:11;98970.53;;;10.96;91.51
78317;BME280;67572;50.930;18.276;2023-05-24T04:48:16;98977.13;;;10.90;91.82
78317;BME280;67572;50.930;18.276;2023-05-24T04:51:20;98975.53;;;10.88;91.39
78317;BME280;67572;50.930;18.276;2023-05-24T04:54:24;98976.53;;;10.74;90.65
78317;BME280;67572;50.930;18.276;2023-05-24T04:57:28;98979.41;;;10.71;90.07
78317;BME280;67572;50.930;18.276;2023-05-24T05:00:32;98986.13;;;10.64;89.29
78317;BME280;67572;50.930;18.276;2023-05-24T05:03:39;98987.06;;;10.63;88.86
78317;BME280;67572;50.930;18.276;2023-05-24T05:06:44;98992.94;;;10.68;89.22
78317;BME280;67572;50.930;18.276;2023-05-24T05:09:49;98987.63;;;10.55;89.02
78317;BME280;67572;50.930;18.276;2023-05-24T05:12:53;98991.91;;;10.45;89.11
78317;BME280;67572;50.930;18.276;2023-05-24T05:15:56;98994.97;;;10.51;89.45
78317;BME280;67572;50.930;18.276;2023-05-24T05:19:02;99005.06;;;10.46;89.29
78317;BME280;67572;50.930;18.276;2023-05-24T05:22:07;99001.69;;;10.44;88.99
78317;BME280;67572;50.930;18.276;2023-05-24T05:25:13;99008.81;;;10.44;89.28
78317;BME280;67572;50.930;18.276;2023-05-24T05:28:16;99007.97;;;10.43;89.02
78317;BME280;67572;50.930;18.276;2023-05-24T05:31:20;99012.94;;;10.35;89.13
78317;BME280;67572;50.930;18.276;2023-05-24T05:34:26;99021.25;;;10.31;89.05
78317;BME280;67572;50.930;18.276;2023-05-24T05:37:29;99024.88;;;10.30;89.08
78317;BME280;67572;50.930;18.276;2023-05-24T05:40:33;99018.91;;;10.26;89.47
78317;BME280;67572;50.930;18.276;2023-05-24T05:43:37;99028.91;;;10.22;89.56
78317;BME280;67572;50.930;18.276;2023-05-24T05:46:41;99025.28;;;10.23;89.58
78317;BME280;67572;50.930;18.276;2023-05-24T05:49:49;99040.03;;;10.27;89.17
78317;BME280;67572;50.930;18.276;2023-05-24T05:52:52;99034.00;;;10.25;89.09
78317;BME280;67572;50.930;18.276;2023-05-24T05:55:56;99038.03;;;10.31;89.06
78317;BME280;67572;50.930;18.276;2023-05-24T05:59:00;99040.81;;;10.30;88.83
78317;BME280;67572;50.930;18.276;2023-05-24T06:02:05;99057.59;;;10.30;88.24
78317;BME280;67572;50.930;18.276;2023-05-24T06:05:11;99067.03;;;10.21;88.37
78317;BME280;67572;50.930;18.276;2023-05-24T06:08:17;99072.69;;;10.30;88.10
78317;BME280;67572;50.930;18.276;2023-05-24T06:11:20;99075.00;;;10.21;87.45
78317;BME280;67572;50.930;18.276;2023-05-24T06:14:25;99085.66;;;10.34;87.39
78317;BME280;67572;50.930;18.276;2023-05-24T06:17:28;99091.19;;;10.31;87.49
78317;BME280;67572;50.930;18.276;2023-05-24T06:20:33;99087.78;;;10.42;87.49
78317;BME280;67572;50.930;18.276;2023-05-24T06:23:38;99092.91;;;10.45;87.40
78317;BME280;67572;50.930;18.276;2023-05-24T06:26:41;99091.41;;;10.41;87.72
78317;BME280;67572;50.930;18.276;2023-05-24T06:29:45;99101.41;;;10.50;88.18
78317;BME280;67572;50.930;18.276;2023-05-24T06:32:50;99102.34;;;10.49;88.34
78317;BME280;67572;50.930;18.276;2023-05-24T06:35:55;99101.94;;;10.30;87.78
78317;BME280;67572;50.930;18.276;2023-05-24T06:38:59;99104.38;;;10.33;87.90
78317;BME280;67572;50.930;18.276;2023-05-24T06:42:03;99112.75;;;10.26;87.77
78317;BME280;67572;50.930;18.276;2023-05-24T06:45:10;99113.22;;;10.19;87.80
78317;BME280;67572;50.930;18.276;2023-05-24T06:48:15;99122.84;;;10.34;87.95
78317;BME280;67572;50.930;18.276;2023-05-24T06:51:20;99120.25;;;10.20;87.53
78317;BME280;67572;50.930;18.276;2023-05-24T06:54:24;99128.31;;;10.18;87.76
78317;BME280;67572;50.930;18.276;2023-05-24T06:57:27;99123.59;;;10.23;87.42
78317;BME280;67572;50.930;18.276;2023-05-24T07:00:31;99131.50;;;10.38;87.67
78317;BME280;67572;50.930;18.276;2023-05-24T07:03:35;99136.47;;;10.30;87.50
78317;BME280;67572;50.930;18.276;2023-05-24T07:06:40;99133.13;;;10.13;87.25
78317;BME280;67572;50.930;18.276;2023-05-24T07:09:44;99145.81;;;10.22;87.24
78317;BME280;67572;50.930;18.276;2023-05-24T07:12:48;99155.47;;;10.23;87.28
78317;BME280;67572;50.930;18.276;2023-05-24T07:15:52;99157.75;;;10.30;87.47
78317;BME280;67572;50.930;18.276;2023-05-24T07:18:56;99156.53;;;10.21;87.11
78317;BME280;67572;50.930;18.276;2023-05-24T07:22:03;99161.75;;;10.35;87.28
78317;BME280;67572;50.930;18.276;2023-05-24T07:25:08;99167.97;;;10.36;86.81
78317;BME280;67572;50.930;18.276;2023-05-24T07:28:12;99171.03;;;10.42;87.15
78317;BME280;67572;50.930;18.276;2023-05-24T07:31:19;99174.31;;;10.33;86.73
78317;BME280;67572;50.930;18.276;2023-05-24T07:34:24;99179.44;;;10.36;86.59
78317;BME280;67572;50.930;18.276;2023-05-24T07:37:33;99190.09;;;10.49;86.52
78317;BME280;67572;50.930;18.276;2023-05-24T07:40:37;99192.41;;;10.41;85.93
78317;BME280;67572;50.930;18.276;2023-05-24T07:43:41;99196.16;;;10.51;86.14
78317;BME280;67572;50.930;18.276;2023-05-24T07:46:45;99187.84;;;10.43;85.93
78317;BME280;67572;50.930;18.276;2023-05-24T07:49:49;99193.19;;;10.43;85.58
78317;BME280;67572;50.930;18.276;2023-05-24T07:52:55;99200.28;;;10.42;86.26
78317;BME280;67572;50.930;18.276;2023-05-24T07:55:58;99202.06;;;10.29;87.10
78317;BME280;67572;50.930;18.276;2023-05-24T07:59:02;99201.97;;;10.31;87.31
78317;BME280;67572;50.930;18.276;2023-05-24T08:02:06;99202.50;;;10.36;87.45
78317;BME280;67572;50.930;18.276;2023-05-24T08:05:12;99206.66;;;10.40;87.36
78317;BME280;67572;50.930;18.276;2023-05-24T08:08:17;99209.22;;;10.14;87.20
78317;BME280;67572;50.930;18.276;2023-05-24T08:11:21;99210.31;;;10.24;87.44
78317;BME280;67572;50.930;18.276;2023-05-24T08:14:25;99216.38;;;10.26;87.12
78317;BME280;67572;50.930;18.276;2023-05-24T08:17:28;99221.22;;;10.20;87.13
78317;BME280;67572;50.930;18.276;2023-05-24T08:20:32;99220.00;;;10.25;86.99
78317;BME280;67572;50.930;18.276;2023-05-24T08:23:39;99225.44;;;10.10;86.70
78317;BME280;67572;50.930;18.276;2023-05-24T08:26:42;99229.63;;;10.14;86.48
78317;BME280;67572;50.930;18.276;2023-05-24T08:29:46;99236.91;;;10.24;86.59
78317;BME280;67572;50.930;18.276;2023-05-24T08:32:49;99244.88;;;10.24;86.30
78317;BME280;67572;50.930;18.276;2023-05-24T08:35:53;99234.50;;;10.20;86.42
78317;BME280;67572;50.930;18.276;2023-05-24T08:38:58;99230.97;;;10.07;85.91
78317;BME280;67572;50.930;18.276;2023-05-24T08:42:01;99244.28;;;10.19;86.11
78317;BME280;67572;50.930;18.276;2023-05-24T08:45:12;99250.28;;;10.23;85.94
78317;BME280;67572;50.930;18.276;2023-05-24T08:48:17;99258.28;;;10.23;86.05
78317;BME280;67572;50.930;18.276;2023-05-24T08:51:23;99253.31;;;10.17;85.83
78317;BME280;67572;50.930;18.276;2023-05-24T08:54:29;99252.44;;;10.31;85.63
78317;BME280;67572;50.930;18.276;2023-05-24T08:57:34;99255.34;;;10.40;85.41
78317;BME280;67572;50.930;18.276;2023-05-24T09:00:41;99262.97;;;10.32;85.29
78317;BME280;67572;50.930;18.276;2023-05-24T09:03:45;99270.19;;;10.30;85.18
78317;BME280;67572;50.930;18.276;2023-05-24T09:06:51;99284.22;;;10.32;85.53
78317;BME280;67572;50.930;18.276;2023-05-24T09:10:02;99284.72;;;10.24;85.35
78317;BME280;67572;50.930;18.276;2023-05-24T09:13:06;99286.25;;;10.28;85.41
78317;BME280;67572;50.930;18.276;2023-05-24T09:16:11;99293.66;;;10.23;85.30
78317;BME280;67572;50.930;18.276;2023-05-24T09:19:15;99287.56;;;10.21;85.40
78317;BME280;67572;50.930;18.276;2023-05-24T09:22:23;99294.88;;;10.18;85.33
78317;BME280;67572;50.930;18.276;2023-05-24T09:25:29;99296.03;;;10.28;85.36
78317;BME280;67572;50.930;18.276;2023-05-24T09:28:33;99291.84;;;10.24;85.31
78317;BME280;67572;50.930;18.276;2023-05-24T09:31:45;99297.34;;;10.21;84.97
78317;BME280;67572;50.930;18.276;2023-05-24T09:34:51;99309.97;;;10.32;84.41
78317;BME280;67572;50.930;18.276;2023-05-24T09:37:56;99307.66;;;10.40;84.39
78317;BME280;67572;50.930;18.276;2023-05-24T09:41:03;99305.75;;;10.69;83.89
78317;BME280;67572;50.930;18.276;2023-05-24T09:44:16;99307.78;;;10.78;82.89
78317;BME280;67572;50.930;18.276;2023-05-24T09:47:27;99302.03;;;10.71;83.13
78317;BME280;67572;50.930;18.276;2023-05-24T09:50:49;99305.16;;;10.91;82.40
78317;BME280;67572;50.930;18.276;2023-05-24T09:54:07;99312.22;;;11.17;81.59
78317;BME280;67572;50.930;18.276;2023-05-24T09:57:23;99316.59;;;11.05;81.39
78317;BME280;67572;50.930;18.276;2023-05-24T10:00:39;99315.44;;;11.22;81.22
78317;BME280;67572;50.930;18.276;2023-05-24T10:03:51;99308.59;;;11.05;80.84
78317;BME280;67572;50.930;18.276;2023-05-24T10:06:55;99314.28;;;11.39;81.18
78317;BME280;67572;50.930;18.276;2023-05-24T10:09:59;99315.22;;;11.38;80.23
78317;BME280;67572;50.930;18.276;2023-05-24T10:13:06;99313.53;;;11.50;80.22
78317;BME280;67572;50.930;18.276;2023-05-24T10:16:09;99314.59;;;11.47;79.41
78317;BME280;67572;50.930;18.276;2023-05-24T10:19:14;99318.84;;;11.62;79.83
78317;BME280;67572;50.930;18.276;2023-05-24T10:22:19;99312.56;;;11.38;79.83
78317;BME280;67572;50.930;18.276;2023-05-24T10:25:26;99321.75;;;11.59;80.08
78317;BME280;67572;50.930;18.276;2023-05-24T10:28:33;99338.47;;;11.49;79.57
78317;BME280;67572;50.930;18.276;2023-05-24T10:31:39;99340.63;;;11.82;79.44
78317;BME280;67572;50.930;18.276;2023-05-24T10:34:45;99332.81;;;11.66;79.30
78317;BME280;67572;50.930;18.276;2023-05-24T10:37:50;99331.19;;;11.63;79.29
78317;BME280;67572;50.930;18.276;2023-05-24T10:40:53;99337.59;;;11.61;79.11
78317;BME280;67572;50.930;18.276;2023-05-24T10:43:58;99333.97;;;11.75;79.48
78317;BME280;67572;50.930;18.276;2023-05-24T10:47:12;99330.66;;;11.71;79.15
78317;BME280;67572;50.930;18.276;2023-05-24T10:50:17;99329.19;;;12.05;78.44
78317;BME280;67572;50.930;18.276;2023-05-24T10:53:22;99336.84;;;12.10;78.35
78317;BME280;67572;50.930;18.276;2023-05-24T10:56:28;99344.47;;;12.27;78.04
78317;BME280;67572;50.930;18.276;2023-05-24T10:59:37;99335.09;;;12.21;77.15
78317;BME280;67572;50.930;18.276;2023-05-24T11:02:42;99346.44;;;12.00;77.81
78317;BME280;67572;50.930;18.276;2023-05-24T11:05:52;99339.09;;;11.90;78.15
78317;BME280;67572;50.930;18.276;2023-05-24T11:08:59;99343.66;;;12.01;78.32
78317;BME280;67572;50.930;18.276;2023-05-24T11:12:06;99336.88;;;12.34;78.66
78317;BME280;67572;50.930;18.276;2023-05-24T11:15:11;99340.47;;;12.45;77.25
78317;BME280;67572;50.930;18.276;2023-05-24T11:18:15;99341.38;;;12.33;77.04
78317;BME280;67572;50.930;18.276;2023-05-24T11:21:21;99345.31;;;12.40;77.50
78317;BME280;67572;50.930;18.276;2023-05-24T11:24:27;99339.91;;;12.53;76.70
78317;BME280;67572;50.930;18.276;2023-05-24T11:27:31;99339.56;;;12.82;75.71
78317;BME280;67572;50.930;18.276;2023-05-24T11:30:39;99348.66;;;12.79;76.34
78317;BME280;67572;50.930;18.276;2023-05-24T11:33:44;99345.06;;;12.91;76.17
78317;BME280;67572;50.930;18.276;2023-05-24T11:36:47;99344.75;;;13.07;75.28
78317;BME280;67572;50.930;18.276;2023-05-24T11:39:51;99344.13;;;13.27;74.86
78317;BME280;67572;50.930;18.276;2023-05-24T11:42:59;99344.66;;;13.32;74.70
78317;BME280;67572;50.930;18.276;2023-05-24T11:46:04;99344.00;;;13.29;73.76
78317;BME280;67572;50.930;18.276;2023-05-24T11:49:12;99336.00;;;13.29;73.85
78317;BME280;67572;50.930;18.276;2023-05-24T11:52:16;99341.34;;;12.94;74.07
78317;BME280;67572;50.930;18.276;2023-05-24T11:55:23;99346.41;;;13.21;74.21
78317;BME280;67572;50.930;18.276;2023-05-24T11:58:33;99348.28;;;13.31;75.06
78317;BME280;67572;50.930;18.276;2023-05-24T12:01:42;99348.50;;;12.93;74.89
78317;BME280;67572;50.930;18.276;2023-05-24T12:04:45;99335.16;;;12.93;75.81
78317;BME280;67572;50.930;18.276;2023-05-24T12:08:00;99342.59;;;13.01;76.43
78317;BME280;67572;50.930;18.276;2023-05-24T12:11:05;99351.66;;;12.74;75.85
78317;BME280;67572;50.930;18.276;2023-05-24T12:14:12;99343.25;;;12.68;76.01
78317;BME280;67572;50.930;18.276;2023-05-24T12:17:20;99338.53;;;12.95;74.85
78317;BME280;67572;50.930;18.276;2023-05-24T12:20:26;99340.78;;;13.13;73.91
78317;BME280;67572;50.930;18.276;2023-05-24T12:23:30;99349.59;;;13.26;73.23
78317;BME280;67572;50.930;18.276;2023-05-24T12:26:35;99342.28;;;13.74;73.50
78317;BME280;67572;50.930;18.276;2023-05-24T12:29:39;99343.88;;;13.99;72.58
78317;BME280;67572;50.930;18.276;2023-05-24T12:32:45;99352.34;;;13.59;72.70
78317;BME280;67572;50.930;18.276;2023-05-24T12:35:49;99346.34;;;13.45;72.71
78317;BME280;67572;50.930;18.276;2023-05-24T12:38:55;99342.53;;;13.71;72.77
78317;BME280;67572;50.930;18.276;2023-05-24T12:42:00;99349.72;;;13.93;72.50
78317;BME280;67572;50.930;18.276;2023-05-24T12:45:04;99343.84;;;13.66;72.30
78317;BME280;67572;50.930;18.276;2023-05-24T12:48:09;99349.91;;;13.56;72.93
78317;BME280;67572;50.930;18.276;2023-05-24T12:51:13;99348.81;;;13.48;73.75
78317;BME280;67572;50.930;18.276;2023-05-24T12:54:18;99340.28;;;13.31;72.92
78317;BME280;67572;50.930;18.276;2023-05-24T12:57:22;99344.88;;;13.29;73.42
78317;BME280;67572;50.930;18.276;2023-05-24T13:00:27;99341.25;;;13.30;73.53
78317;BME280;67572;50.930;18.276;2023-05-24T13:03:32;99342.56;;;13.25;72.14
78317;BME280;67572;50.930;18.276;2023-05-24T13:06:38;99352.94;;;13.52;71.50
78317;BME280;67572;50.930;18.276;2023-05-24T13:09:41;99345.69;;;13.87;70.93
78317;BME280;67572;50.930;18.276;2023-05-24T13:12:45;99350.91;;;13.89;70.95
78317;BME280;67572;50.930;18.276;2023-05-24T13:15:49;99345.91;;;14.40;71.07
78317;BME280;67572;50.930;18.276;2023-05-24T13:18:54;99350.19;;;14.09;69.65
78317;BME280;67572;50.930;18.276;2023-05-24T13:21:57;99338.19;;;13.93;69.86
78317;BME280;67572;50.930;18.276;2023-05-24T13:25:01;99346.16;;;14.26;70.63
78317;BME280;67572;50.930;18.276;2023-05-24T13:28:05;99343.13;;;13.75;70.56
78317;BME280;67572;50.930;18.276;2023-05-24T13:31:09;99344.97;;;13.97;70.61
78317;BME280;67572;50.930;18.276;2023-05-24T13:34:14;99357.72;;;14.04;71.36
78317;BME280;67572;50.930;18.276;2023-05-24T13:37:19;99353.84;;;14.08;71.00
78317;BME280;67572;50.930;18.276;2023-05-24T13:40:23;99352.75;;;14.11;70.13
78317;BME280;67572;50.930;18.276;2023-05-24T13:43:27;99351.53;;;13.81;71.20
78317;BME280;67572;50.930;18.276;2023-05-24T13:46:31;99347.75;;;13.73;71.67
78317;BME280;67572;50.930;18.276;2023-05-24T13:49:39;99349.09;;;13.89;72.63
78317;BME280;67572;50.930;18.276;2023-05-24T13:52:43;99350.44;;;13.84;71.70
78317;BME280;67572;50.930;18.276;2023-05-24T13:55:47;99348.47;;;13.75;71.48
78317;BME280;67572;50.930;18.276;2023-05-24T13:58:51;99354.69;;;13.86;71.54
78317;BME280;67572;50.930;18.276;2023-05-24T14:01:54;99349.34;;;13.86;70.57
78317;BME280;67572;50.930;18.276;2023-05-24T14:04:59;99344.00;;;13.98;70.10
78317;BME280;67572;50.930;18.276;2023-05-24T14:08:23;99350.56;;;14.05;69.53
78317;BME280;67572;50.930;18.276;2023-05-24T14:11:29;99347.03;;;14.15;70.33
78317;BME280;67572;50.930;18.276;2023-05-24T14:14:33;99342.50;;;14.38;69.10
78317;BME280;67572;50.930;18.276;2023-05-24T14:18:00;99335.38;;;14.16;69.57
78317;BME280;67572;50.930;18.276;2023-05-24T14:21:11;99340.81;;;14.37;69.08
78317;BME280;67572;50.930;18.276;2023-05-24T14:24:14;99341.56;;;14.28;69.26
78317;BME280;67572;50.930;18.276;2023-05-24T14:27:18;99341.53;;;14.51;70.09
78317;BME280;67572;50.930;18.276;2023-05-24T14:30:22;99339.22;;;14.35;69.00
78317;BME280;67572;50.930;18.276;2023-05-24T14:33:25;99343.94;;;14.42;69.51
78317;BME280;67572;50.930;18.276;2023-05-24T14:36:30;99346.63;;;14.42;69.05
78317;BME280;67572;50.930;18.276;2023-05-24T14:39:34;99342.75;;;14.35;68.69
78317;BME280;67572;50.930;18.276;2023-05-24T14:42:38;99340.94;;;14.36;69.01
78317;BME280;67572;50.930;18.276;2023-05-24T14:45:41;99350.53;;;14.27;68.44
78317;BME280;67572;50.930;18.276;2023-05-24T14:48:46;99348.75;;;14.16;69.15
78317;BME280;67572;50.930;18.276;2023-05-24T14:51:51;99352.00;;;14.31;68.06
78317;BME280;67572;50.930;18.276;2023-05-24T14:54:54;99362.09;;;14.05;69.63
78317;BME280;67572;50.930;18.276;2023-05-24T14:57:59;99359.19;;;13.97;69.68
78317;BME280;67572;50.930;18.276;2023-05-24T15:01:02;99363.09;;;14.15;69.11
78317;BME280;67572;50.930;18.276;2023-05-24T15:04:06;99353.22;;;14.27;68.74
78317;BME280;67572;50.930;18.276;2023-05-24T15:07:11;99350.06;;;14.33;69.12
78317;BME280;67572;50.930;18.276;2023-05-24T15:10:15;99359.06;;;14.21;69.04
78317;BME280;67572;50.930;18.276;2023-05-24T15:13:19;99351.28;;;14.29;68.78
78317;BME280;67572;50.930;18.276;2023-05-24T15:16:24;99361.63;;;14.23;68.81
78317;BME280;67572;50.930;18.276;2023-05-24T15:19:28;99356.41;;;14.10;69.06
78317;BME280;67572;50.930;18.276;2023-05-24T15:22:33;99356.25;;;14.34;69.63
78317;BME280;67572;50.930;18.276;2023-05-24T15:25:37;99358.91;;;14.34;69.66
78317;BME280;67572;50.930;18.276;2023-05-24T15:28:42;99366.72;;;14.03;69.96
78317;BME280;67572;50.930;18.276;2023-05-24T15:31:46;99371.69;;;14.19;70.18
78317;BME280;67572;50.930;18.276;2023-05-24T15:34:50;99365.00;;;13.80;70.50
78317;BME280;67572;50.930;18.276;2023-05-24T15:37:55;99370.47;;;13.78;70.77
78317;BME280;67572;50.930;18.276;2023-05-24T15:41:00;99361.75;;;13.76;71.34
78317;BME280;67572;50.930;18.276;2023-05-24T15:44:05;99367.22;;;13.86;71.10
78317;BME280;67572;50.930;18.276;2023-05-24T15:47:10;99362.34;;;13.80;71.02
78317;BME280;67572;50.930;18.276;2023-05-24T15:50:14;99371.44;;;13.88;70.67
78317;BME280;67572;50.930;18.276;2023-05-24T15:53:26;99369.88;;;13.97;70.72
78317;BME280;67572;50.930;18.276;2023-05-24T15:56:29;99372.53;;;13.97;71.23
78317;BME280;67572;50.930;18.276;2023-05-24T15:59:33;99369.88;;;13.86;71.51
78317;BME280;67572;50.930;18.276;2023-05-24T16:02:39;99368.63;;;13.68;71.74
78317;BME280;67572;50.930;18.276;2023-05-24T16:05:43;99378.84;;;13.74;71.66
78317;BME280;67572;50.930;18.276;2023-05-24T16:08:51;99374.34;;;13.74;71.83